Time;durP1;ratioP1;P1;durP2;ratioP2;P2;SDS_P1;SDS_P2;PMS_P1;PMS_P2;Temp;Humidity;BMP_temperature;BMP_pressure;BME280_temperature;BME280_humidity;BME280_pressure;Samples;Min_cycle;Max_cycle;Signal;HPM_P1;HPM_P2
2021/05/08 00:02:09;;;;;;;27.65;12.38;;;;;;;4.25;80.53;101995.34;5022371;28;20131;-73
2021/05/08 00:04:36;;;;;;;21.42;12.27;;;;;;;4.27;81.53;101991.00;5017250;28;20107;-74
2021/05/08 00:07:03;;;;;;;21.50;12.18;;;;;;;4.27;81.14;101995.38;5022749;28;20061;-73
2021/05/08 00:09:31;;;;;;;20.67;11.68;;;;;;;4.27;80.74;101991.00;5016445;28;20066;-73
2021/05/08 00:11:58;;;;;;;20.75;13.07;;;;;;;4.27;80.56;101990.09;5024367;28;20065;-72
2021/05/08 00:14:26;;;;;;;24.33;11.25;;;;;;;4.20;80.89;101982.97;5019774;28;20061;-72
2021/05/08 00:16:56;;;;;;;25.25;13.35;;;;;;;4.26;81.03;101986.56;5020482;28;20155;-73
2021/05/08 00:19:23;;;;;;;23.48;14.02;;;;;;;4.30;80.88;101982.22;5022019;28;20065;-73
2021/05/08 00:21:51;;;;;;;23.75;13.13;;;;;;;4.38;81.31;101987.59;5018127;28;20114;-73
2021/05/08 00:24:18;;;;;;;26.42;13.25;;;;;;;4.35;80.67;101982.28;5021879;28;20087;-73
2021/05/08 00:26:46;;;;;;;26.75;14.57;;;;;;;4.34;81.12;101980.50;5019461;28;20057;-75
2021/05/08 00:29:13;;;;;;;22.27;11.90;;;;;;;4.32;81.03;101980.47;5026082;28;20069;-75
2021/05/08 00:31:40;;;;;;;19.67;11.55;;;;;;;4.26;81.04;101969.84;5032659;28;20049;-75
2021/05/08 00:34:07;;;;;;;21.38;13.00;;;;;;;4.30;81.29;101969.00;5023279;28;20053;-75
2021/05/08 00:36:34;;;;;;;22.65;12.13;;;;;;;4.28;81.14;101968.09;5019819;28;20060;-75
2021/05/08 00:39:01;;;;;;;22.08;12.57;;;;;;;4.28;80.94;101976.03;5019590;28;20476;-75
2021/05/08 00:41:28;;;;;;;22.83;13.20;;;;;;;4.22;81.81;101968.94;5020738;28;20096;-75
2021/05/08 00:43:57;;;;;;;22.42;13.50;;;;;;;4.21;81.37;101967.13;5019237;28;20064;-75
2021/05/08 00:46:24;;;;;;;23.88;14.50;;;;;;;4.17;81.55;101964.44;5019639;28;20057;-75
2021/05/08 00:48:51;;;;;;;25.00;14.50;;;;;;;4.10;82.21;101964.38;5036892;28;20286;-75
2021/05/08 00:51:19;;;;;;;19.55;11.57;;;;;;;3.99;81.77;101954.53;5019731;28;20061;-75
2021/05/08 00:53:46;;;;;;;24.23;13.50;;;;;;;3.97;81.54;101967.72;5036793;28;20248;-75
2021/05/08 00:56:13;;;;;;;26.27;12.88;;;;;;;3.92;81.66;101957.09;5019136;28;20061;-75
2021/05/08 00:58:41;;;;;;;23.45;13.20;;;;;;;3.87;82.02;101963.19;5021045;28;20658;-74
2021/05/08 01:01:09;;;;;;;23.17;13.55;;;;;;;3.79;81.42;101956.91;5018912;28;20334;-74
2021/05/08 01:03:36;;;;;;;22.42;13.02;;;;;;;3.72;82.04;101961.22;5018319;28;20107;-75
2021/05/08 01:06:04;;;;;;;23.52;12.68;;;;;;;3.65;82.03;101954.06;5027960;28;20625;-74
2021/05/08 01:08:34;;;;;;;21.40;12.55;;;;;;;3.61;82.17;101944.31;5017314;28;20199;-75
2021/05/08 01:11:02;;;;;;;21.90;12.48;;;;;;;3.59;82.55;101946.94;5022545;28;20107;-75
2021/05/08 01:13:29;;;;;;;22.08;11.90;;;;;;;3.61;82.57;101949.59;5015120;28;20195;-75
2021/05/08 01:15:56;;;;;;;25.90;14.23;;;;;;;3.63;82.68;101945.25;5037069;28;20107;-75
2021/05/08 01:18:24;;;;;;;25.27;14.13;;;;;;;3.63;83.54;101937.34;5015093;28;20053;-72
2021/05/08 01:20:52;;;;;;;24.83;13.07;;;;;;;3.65;82.85;101940.88;5020541;28;20109;-72
2021/05/08 01:23:19;;;;;;;23.40;13.07;;;;;;;3.70;82.71;101940.06;5016052;28;20516;-73
2021/05/08 01:25:46;;;;;;;30.08;13.55;;;;;;;3.66;82.55;101929.44;5020223;28;20596;-73
2021/05/08 01:28:13;;;;;;;24.77;13.40;;;;;;;3.65;82.60;101932.97;5019744;28;20495;-73
2021/05/08 01:30:40;;;;;;;30.15;13.60;;;;;;;3.65;82.97;101928.56;5016548;28;20518;-72
2021/05/08 01:33:07;;;;;;;26.48;13.63;;;;;;;3.71;83.00;101931.28;5022591;28;20081;-75
2021/05/08 01:35:35;;;;;;;28.98;14.55;;;;;;;3.71;83.20;101923.38;5030427;28;20064;-74
2021/05/08 01:38:03;;;;;;;25.45;14.13;;;;;;;3.79;83.23;101922.59;5018671;28;20068;-75
2021/05/08 01:40:33;;;;;;;29.00;14.93;;;;;;;3.77;83.09;101909.34;5018146;28;21467;-72
2021/05/08 01:43:00;;;;;;;27.40;14.80;;;;;;;3.76;82.87;101912.84;5034643;28;20049;-72
2021/05/08 01:45:28;;;;;;;26.17;14.00;;;;;;;3.73;82.96;101910.19;5028431;28;20511;-72
2021/05/08 01:47:56;;;;;;;26.23;14.63;;;;;;;3.74;83.29;101915.47;5018631;28;20057;-72
2021/05/08 01:50:26;;;;;;;25.40;13.32;;;;;;;3.72;83.04;101906.66;5017044;28;20064;-72
2021/05/08 01:52:53;;;;;;;22.52;13.55;;;;;;;3.71;82.97;101901.34;5035187;28;20451;-72
2021/05/08 01:55:22;;;;;;;27.27;14.95;;;;;;;3.68;83.66;101889.00;5018651;28;20083;-72
2021/05/08 01:57:50;;;;;;;28.38;14.80;;;;;;;3.75;82.96;101889.97;5019355;28;20065;-72
2021/05/08 02:00:20;;;;;;;21.13;12.63;;;;;;;3.78;83.11;101894.38;5018982;28;20061;-72
2021/05/08 02:02:47;;;;;;;27.75;14.68;;;;;;;3.74;83.05;101893.47;5032648;28;20062;-72
2021/05/08 02:05:15;;;;;;;24.67;13.70;;;;;;;3.79;82.93;101889.13;5016968;28;20344;-72
2021/05/08 02:07:41;;;;;;;28.75;14.38;;;;;;;3.81;82.30;101886.50;5020291;28;20057;-73
2021/05/08 02:10:11;;;;;;;28.27;14.38;;;;;;;3.78;82.38;101882.09;5016147;28;20522;-72
2021/05/08 02:12:38;;;;;;;25.40;13.10;;;;;;;3.74;82.64;101882.91;5018140;28;20057;-72
2021/05/08 02:15:08;;;;;;;23.65;13.30;;;;;;;3.77;82.40;101874.16;5031921;28;20062;-73
2021/05/08 02:17:35;;;;;;;26.63;13.13;;;;;;;3.79;82.11;101868.00;5017391;28;20105;-72
2021/05/08 02:20:05;;;;;;;28.77;14.63;;;;;;;3.78;82.09;101876.81;5019548;28;20057;-72
2021/05/08 02:22:32;;;;;;;24.08;13.15;;;;;;;3.74;82.02;101872.34;5016878;28;20058;-72
2021/05/08 02:24:59;;;;;;;31.35;14.52;;;;;;;3.78;81.60;101868.00;5020364;28;20223;-75
2021/05/08 02:27:26;;;;;;;25.02;14.05;;;;;;;3.74;82.07;101869.72;5015876;28;20152;-72
2021/05/08 02:29:53;;;;;;;28.05;13.27;;;;;;;3.71;82.42;101864.38;5035433;28;20069;-72
2021/05/08 02:32:21;;;;;;;23.05;13.23;;;;;;;3.70;82.71;101870.56;5020355;28;20063;-72
2021/05/08 02:34:49;;;;;;;25.52;13.40;;;;;;;3.70;81.86;101858.22;5023181;28;20065;-72
2021/05/08 02:37:15;;;;;;;21.10;12.15;;;;;;;3.70;81.82;101866.16;5021266;28;20064;-72
2021/05/08 02:39:43;;;;;;;26.17;13.63;;;;;;;3.69;82.22;101856.44;5022526;28;20057;-72
2021/05/08 02:42:09;;;;;;;23.80;12.95;;;;;;;3.65;81.74;101848.50;5022204;28;20152;-75
2021/05/08 02:44:36;;;;;;;22.23;13.02;;;;;;;3.63;81.64;101853.75;5022407;28;20057;-74
2021/05/08 02:47:03;;;;;;;21.17;11.77;;;;;;;3.61;81.93;101846.66;5022441;28;20471;-75
2021/05/08 02:49:31;;;;;;;23.40;12.07;;;;;;;3.60;82.11;101844.91;5021264;28;20088;-74
2021/05/08 02:51:57;;;;;;;23.83;12.45;;;;;;;3.60;81.97;101844.91;5022834;28;20330;-74
2021/05/08 02:54:24;;;;;;;21.70;13.40;;;;;;;3.65;81.55;101841.44;5032198;28;20065;-74
2021/05/08 02:56:51;;;;;;;20.02;11.32;;;;;;;3.76;81.04;101835.41;5022080;28;20061;-74
2021/05/08 02:59:18;;;;;;;20.35;10.95;;;;;;;3.86;80.57;101840.81;5020186;28;20409;-74
2021/05/08 03:01:44;;;;;;;18.55;10.32;;;;;;;3.97;80.00;101840.03;5034488;28;20139;-72
2021/05/08 03:04:11;;;;;;;21.65;10.75;;;;;;;3.96;79.56;101836.53;5019793;28;20110;-72
2021/05/08 03:06:39;;;;;;;19.88;10.48;;;;;;;4.08;78.25;101822.56;5021913;28;20646;-72
2021/05/08 03:09:06;;;;;;;18.17;10.45;;;;;;;4.10;78.29;101827.00;5018607;28;20057;-72
2021/05/08 03:11:33;;;;;;;15.32;9.82;;;;;;;4.18;77.53;101815.63;5022961;28;20071;-72
2021/05/08 03:14:00;;;;;;;17.58;8.73;;;;;;;4.15;77.81;101819.09;5017783;28;20065;-72
2021/05/08 03:16:27;;;;;;;16.52;8.82;;;;;;;4.22;77.45;101817.41;5024682;28;20075;-72
2021/05/08 03:18:54;;;;;;;14.30;8.75;;;;;;;4.27;77.08;101813.97;5017855;28;20069;-72
2021/05/08 03:21:21;;;;;;;16.75;8.50;;;;;;;4.27;76.91;101818.34;5022196;28;20060;-72
2021/05/08 03:23:49;;;;;;;16.33;8.90;;;;;;;4.30;76.76;101813.09;5022101;28;20062;-72
2021/05/08 03:26:16;;;;;;;18.95;9.65;;;;;;;4.34;76.14;101804.31;5017493;28;20606;-72
2021/05/08 03:28:43;;;;;;;14.85;8.02;;;;;;;4.49;75.77;101800.94;5023472;28;20064;-73
2021/05/08 03:31:10;;;;;;;17.08;8.80;;;;;;;4.47;76.10;101794.75;5018297;28;20130;-72
2021/05/08 03:33:37;;;;;;;17.83;9.23;;;;;;;4.51;75.16;101785.97;5023456;28;20058;-72
2021/05/08 03:36:05;;;;;;;15.70;8.20;;;;;;;4.54;74.61;101790.41;5018788;28;20097;-71
2021/05/08 03:38:32;;;;;;;13.13;8.07;;;;;;;4.56;74.16;101784.22;5020691;28;20060;-71
2021/05/08 03:41:00;;;;;;;16.42;6.78;;;;;;;4.62;73.47;101783.41;5018437;28;20065;-72
2021/05/08 03:43:27;;;;;;;14.40;7.60;;;;;;;4.66;73.45;101785.19;5019609;28;20061;-72
2021/05/08 03:45:54;;;;;;;14.40;8.00;;;;;;;4.72;73.14;101776.44;5021264;28;20101;-72
2021/05/08 03:48:21;;;;;;;13.73;7.93;;;;;;;4.74;73.33;101770.28;5018112;28;20130;-71
2021/05/08 03:50:48;;;;;;;15.27;7.78;;;;;;;4.73;73.13;101772.91;5022576;28;20067;-74
2021/05/08 03:53:16;;;;;;;14.45;8.00;;;;;;;4.74;72.93;101778.22;5038961;28;20377;-74
2021/05/08 03:55:44;;;;;;;13.45;7.47;;;;;;;4.76;72.94;101765.88;5019726;28;20101;-74
2021/05/08 03:58:12;;;;;;;15.40;8.25;;;;;;;4.82;73.39;101770.34;5024758;28;20500;-74
2021/05/08 04:00:39;;;;;;;12.43;7.38;;;;;;;4.77;73.51;101764.16;5020687;28;20348;-74
2021/05/08 04:03:05;;;;;;;12.68;7.72;;;;;;;4.79;72.88;101765.03;5022271;28;20348;-75
2021/05/08 04:05:32;;;;;;;14.27;7.10;;;;;;;4.80;73.41;101762.41;5019787;28;20115;-74
2021/05/08 04:07:59;;;;;;;12.95;7.60;;;;;;;4.85;72.75;101763.31;5019827;28;20344;-74
2021/05/08 04:10:26;;;;;;;13.65;7.68;;;;;;;4.96;72.57;101754.56;5022757;28;20053;-74
2021/05/08 04:12:53;;;;;;;16.05;7.40;;;;;;;4.97;72.08;101756.31;5017114;28;20067;-74
2021/05/08 04:15:20;;;;;;;16.95;8.93;;;;;;;5.03;71.63;101761.66;5022568;28;20067;-74
2021/05/08 04:17:48;;;;;;;12.68;7.28;;;;;;;5.08;72.06;101753.75;5017094;28;20602;-74
2021/05/08 04:20:15;;;;;;;14.35;8.00;;;;;;;5.15;71.11;101750.25;5023742;28;20058;-75
2021/05/08 04:22:42;;;;;;;14.95;8.02;;;;;;;5.21;71.32;101747.59;5015844;28;20449;-74
2021/05/08 04:25:10;;;;;;;13.40;7.65;;;;;;;5.26;70.47;101748.53;5020627;28;20507;-74
2021/05/08 04:27:36;;;;;;;12.20;6.80;;;;;;;5.26;71.05;101745.00;5019451;28;20062;-74
2021/05/08 04:30:04;;;;;;;14.30;7.97;;;;;;;5.31;70.52;101744.16;5017758;28;20103;-74
2021/05/08 04:32:32;;;;;;;18.45;6.95;;;;;;;5.31;70.95;101743.25;5020781;28;20084;-75
2021/05/08 04:34:59;;;;;;;13.15;7.55;;;;;;;5.36;70.57;101741.50;5019454;28;20072;-74
2021/05/08 04:37:25;;;;;;;13.35;7.60;;;;;;;5.36;70.58;101731.81;5022034;28;20065;-74
2021/05/08 04:39:53;;;;;;;13.73;7.78;;;;;;;5.41;70.63;101729.16;5017798;28;20179;-74
2021/05/08 04:42:20;;;;;;;12.23;6.72;;;;;;;5.43;70.80;101738.00;5036051;28;20069;-74
2021/05/08 04:44:47;;;;;;;13.50;7.72;;;;;;;5.47;70.55;101725.69;5016581;28;20083;-72
2021/05/08 04:47:15;;;;;;;14.23;8.23;;;;;;;5.43;71.61;101728.31;5019407;28;20065;-72
2021/05/08 04:49:43;;;;;;;13.07;8.05;;;;;;;5.42;72.06;101725.66;5020312;28;20058;-72
2021/05/08 04:52:09;;;;;;;16.02;7.90;;;;;;;5.44;73.07;101718.59;5018159;28;20180;-72
2021/05/08 04:54:36;;;;;;;14.18;7.93;;;;;;;5.47;73.49;101717.75;5017739;28;20066;-72
2021/05/08 04:57:04;;;;;;;21.48;11.48;;;;;;;5.45;73.49;101717.72;5018495;28;20057;-72
2021/05/08 04:59:30;;;;;;;16.65;10.05;;;;;;;5.51;74.23;101712.44;5015495;28;20057;-72
2021/05/08 05:01:57;;;;;;;18.58;11.20;;;;;;;5.49;73.62;101705.38;5021911;28;20144;-72
2021/05/08 05:04:24;;;;;;;17.33;10.50;;;;;;;5.50;73.71;101708.03;5029913;28;20068;-72
2021/05/08 05:06:52;;;;;;;17.95;10.52;;;;;;;5.57;74.02;101708.94;5020904;28;20072;-71
2021/05/08 05:09:19;;;;;;;18.33;9.55;;;;;;;5.59;74.17;101708.03;5014174;28;20073;-72
2021/05/08 05:11:46;;;;;;;17.08;9.07;;;;;;;5.61;73.92;101705.41;5021305;28;20351;-73
2021/05/08 05:14:13;;;;;;;17.45;10.18;;;;;;;5.67;73.94;101708.09;5017349;28;20072;-72
2021/05/08 05:16:40;;;;;;;19.15;10.95;;;;;;;5.75;73.85;101716.91;5017771;28;20069;-72
2021/05/08 05:19:07;;;;;;;16.15;10.00;;;;;;;5.82;74.05;101704.56;5020131;28;20283;-72
2021/05/08 05:21:33;;;;;;;17.35;9.70;;;;;;;5.94;73.49;101715.19;5016577;28;20471;-73
2021/05/08 05:24:01;;;;;;;16.75;9.82;;;;;;;6.04;72.70;101713.44;5021972;28;20061;-74
2021/05/08 05:26:28;;;;;;;16.13;9.57;;;;;;;6.20;72.51;101710.78;5015108;28;20093;-75
2021/05/08 05:28:55;;;;;;;17.33;8.77;;;;;;;6.31;72.34;101717.84;5021192;28;20061;-75
2021/05/08 05:31:21;;;;;;;17.77;9.32;;;;;;;6.34;71.40;101720.50;5016523;28;20550;-75
2021/05/08 05:33:49;;;;;;;15.80;8.52;;;;;;;6.44;71.46;101717.88;5033731;28;20118;-74
2021/05/08 05:36:16;;;;;;;16.77;8.95;;;;;;;6.47;71.22;101717.84;5019607;28;20061;-73
2021/05/08 05:38:43;;;;;;;18.08;9.25;;;;;;;6.47;70.54;101702.84;5018460;28;20154;-73
2021/05/08 05:41:10;;;;;;;15.93;9.55;;;;;;;6.51;70.72;101703.72;5018755;28;20057;-73
2021/05/08 05:43:37;;;;;;;20.00;9.68;;;;;;;6.54;71.14;101701.94;5015595;28;20061;-73
2021/05/08 05:46:04;;;;;;;15.10;8.85;;;;;;;6.61;71.18;101704.59;5017245;28;20057;-71
2021/05/08 05:48:31;;;;;;;16.45;9.55;;;;;;;6.64;70.82;101705.47;5017289;28;20403;-75
2021/05/08 05:50:58;;;;;;;17.40;9.25;;;;;;;6.71;70.13;101701.03;5018430;28;20057;-72
2021/05/08 05:53:24;;;;;;;18.38;8.88;;;;;;;6.71;70.23;101691.28;5018942;28;20069;-74
2021/05/08 05:55:51;;;;;;;15.80;8.82;;;;;;;6.80;70.16;101695.69;5017503;28;20111;-73
2021/05/08 05:58:19;;;;;;;21.42;10.25;;;;;;;6.81;69.25;101701.88;5034510;28;20358;-72
2021/05/08 06:00:46;;;;;;;17.70;8.82;;;;;;;6.88;68.59;101695.69;5018237;28;20057;-72
2021/05/08 06:03:13;;;;;;;16.17;9.27;;;;;;;6.97;68.59;101685.03;5016122;28;20377;-73
2021/05/08 06:05:40;;;;;;;16.27;8.40;;;;;;;6.96;68.20;101679.72;5016129;28;20144;-72
2021/05/08 06:08:10;;;;;;;14.00;8.60;;;;;;;7.05;67.83;101674.41;5015733;28;20057;-72
2021/05/08 06:10:37;;;;;;;15.13;8.63;;;;;;;7.06;67.28;101655.78;5020312;28;20053;-72
2021/05/08 06:13:04;;;;;;;14.43;8.75;;;;;;;7.12;66.71;101662.84;5014078;28;20062;-74
2021/05/08 06:15:32;;;;;;;18.67;9.52;;;;;;;7.19;66.92;101659.28;5035921;28;20428;-73
2021/05/08 06:17:59;;;;;;;16.45;9.40;;;;;;;7.21;66.05;101664.59;5030047;28;20065;-73
2021/05/08 06:20:26;;;;;;;17.70;9.07;;;;;;;7.29;65.77;101653.03;5021305;28;20143;-71
2021/05/08 06:22:54;;;;;;;18.65;9.73;;;;;;;7.35;65.05;101648.56;5014748;28;20496;-73
2021/05/08 06:25:21;;;;;;;15.48;8.77;;;;;;;7.39;65.41;101645.91;5031800;28;20058;-74
2021/05/08 06:27:49;;;;;;;16.02;9.45;;;;;;;7.40;64.78;101647.66;5019090;28;20696;-73
2021/05/08 06:30:16;;;;;;;15.43;9.43;;;;;;;7.48;64.50;101640.53;5016237;28;20064;-74
2021/05/08 06:32:43;;;;;;;15.10;8.20;;;;;;;7.52;64.66;101649.34;5018312;28;20061;-75
2021/05/08 06:35:11;;;;;;;16.42;8.48;;;;;;;7.63;63.96;101644.84;5013121;28;20180;-74
2021/05/08 06:37:39;;;;;;;15.93;8.60;;;;;;;7.66;62.75;101639.53;5016395;28;20061;-74
2021/05/08 06:40:07;;;;;;;13.45;8.60;;;;;;;7.70;63.02;101643.03;5017755;28;20060;-74
2021/05/08 06:42:34;;;;;;;18.00;8.93;;;;;;;7.73;62.95;101637.72;5016848;28;20073;-71
2021/05/08 06:45:01;;;;;;;15.88;9.02;;;;;;;7.79;61.78;101629.66;5017355;28;20064;-73
2021/05/08 06:47:29;;;;;;;15.73;8.98;;;;;;;7.81;62.15;101635.84;5016907;28;20064;-73
2021/05/08 06:49:58;;;;;;;16.85;9.10;;;;;;;7.91;61.19;101639.31;5017194;28;20057;-76
2021/05/08 06:52:25;;;;;;;16.15;9.43;;;;;;;7.94;61.09;101627.78;5030059;28;20065;-76
2021/05/08 06:54:51;;;;;;;14.65;8.95;;;;;;;7.99;60.00;101632.16;5017208;28;20227;-76
2021/05/08 06:57:18;;;;;;;17.92;9.27;;;;;;;8.03;60.52;101630.34;5016701;28;20065;-74
2021/05/08 06:59:46;;;;;;;18.45;10.13;;;;;;;8.02;60.56;101636.59;5012369;28;20084;-72
2021/05/08 07:02:13;;;;;;;16.02;9.38;;;;;;;7.94;59.50;101636.63;5032607;28;20419;-74
2021/05/08 07:04:39;;;;;;;15.40;9.60;;;;;;;8.02;59.82;101636.59;5013302;28;20197;-74
2021/05/08 07:07:07;;;;;;;17.75;9.52;;;;;;;8.04;60.45;101627.69;5016698;28;20061;-72
2021/05/08 07:09:34;;;;;;;15.10;8.80;;;;;;;8.06;60.71;101627.69;5016557;28;20140;-72
2021/05/08 07:12:01;;;;;;;18.52;9.27;;;;;;;8.00;60.75;101631.28;5014420;28;20053;-72
2021/05/08 07:14:28;;;;;;;17.15;9.73;;;;;;;7.99;60.56;101625.97;5015621;28;20304;-72
2021/05/08 07:16:57;;;;;;;17.60;9.15;;;;;;;8.09;60.82;101626.75;5012413;28;20045;-74
2021/05/08 07:19:24;;;;;;;16.33;9.05;;;;;;;8.13;60.88;101618.75;5021334;28;20057;-77
2021/05/08 07:21:51;;;;;;;16.92;9.73;;;;;;;8.17;60.16;101615.19;5017100;28;20061;-74
2021/05/08 07:24:23;;;;;;;18.58;9.45;;;;;;;8.26;60.57;101616.88;5020504;28;20133;-76
2021/05/08 07:26:50;;;;;;;21.00;9.32;;;;;;;8.30;60.55;101617.72;5017121;28;20317;-75
2021/05/08 07:29:18;;;;;;;18.00;9.75;;;;;;;8.36;60.80;101599.91;5019637;28;20049;-74
2021/05/08 07:31:45;;;;;;;20.00;10.45;;;;;;;8.48;60.83;101603.34;5020403;28;20452;-72
2021/05/08 07:34:12;;;;;;;18.33;9.98;;;;;;;8.40;60.02;101604.28;5018819;28;20072;-74
2021/05/08 07:36:39;;;;;;;15.13;8.75;;;;;;;8.51;59.53;101605.97;5017484;28;20065;-75
2021/05/08 07:39:06;;;;;;;19.40;9.75;;;;;;;8.57;60.32;101595.28;5019204;28;20247;-75
2021/05/08 07:41:35;;;;;;;18.45;9.73;;;;;;;8.57;60.11;101593.50;5018852;28;20977;-75
2021/05/08 07:44:02;;;;;;;18.15;9.68;;;;;;;8.74;60.71;101585.31;5018155;28;20098;-75
2021/05/08 07:46:30;;;;;;;19.00;10.27;;;;;;;8.77;59.70;101582.63;5019314;28;20144;-72
2021/05/08 07:48:57;;;;;;;19.77;9.00;;;;;;;8.91;59.48;101589.53;5018634;28;20672;-72
2021/05/08 07:51:24;;;;;;;17.70;9.05;;;;;;;8.96;59.68;101579.72;5015203;28;20103;-72
2021/05/08 07:53:51;;;;;;;19.30;9.57;;;;;;;9.01;59.48;101580.53;5019634;28;20388;-72
2021/05/08 07:56:18;;;;;;;16.92;9.95;;;;;;;9.04;58.95;101576.94;5020596;28;20057;-73
2021/05/08 07:58:46;;;;;;;17.05;9.85;;;;;;;9.01;58.78;101577.88;5018183;28;20142;-73
2021/05/08 08:01:12;;;;;;;17.75;9.98;;;;;;;9.14;58.97;101579.47;5034116;28;20127;-73
2021/05/08 08:03:39;;;;;;;17.42;9.98;;;;;;;9.18;58.63;101574.97;5015790;28;20066;-73
2021/05/08 08:06:06;;;;;;;19.15;9.73;;;;;;;9.24;58.38;101560.69;5018339;28;20061;-72
2021/05/08 08:08:34;;;;;;;17.83;9.63;;;;;;;9.32;58.39;101564.09;5032067;28;20057;-73
2021/05/08 08:11:00;;;;;;;13.98;8.88;;;;;;;9.47;58.03;101558.53;5018999;28;20184;-75
2021/05/08 08:13:27;;;;;;;19.35;9.68;;;;;;;9.57;57.74;101559.28;5016194;28;20127;-76
2021/05/08 08:15:55;;;;;;;14.18;8.48;;;;;;;9.69;57.20;101560.88;5018202;28;20088;-73
2021/05/08 08:18:22;;;;;;;16.25;9.40;;;;;;;9.75;56.11;101555.41;5014283;28;20775;-72
2021/05/08 08:20:49;;;;;;;17.30;8.82;;;;;;;9.99;56.88;101558.53;5019428;28;20053;-72
2021/05/08 08:23:16;;;;;;;15.35;8.85;;;;;;;10.19;56.08;101544.84;5021099;28;20096;-73
2021/05/08 08:25:46;;;;;;;18.83;8.00;;;;;;;10.28;55.86;101542.91;5014906;28;20072;-74
2021/05/08 08:28:13;;;;;;;17.42;8.85;;;;;;;10.27;55.22;101538.44;5016616;28;20492;-72
2021/05/08 08:30:40;;;;;;;14.30;8.18;;;;;;;10.35;55.38;101524.09;5030788;28;20072;-75
2021/05/08 08:33:08;;;;;;;15.25;8.40;;;;;;;10.22;54.93;101536.78;5019975;28;20084;-75
2021/05/08 08:35:35;;;;;;;16.05;8.85;;;;;;;10.35;54.81;101533.00;5016350;28;20061;-75
2021/05/08 08:38:02;;;;;;;14.38;8.20;;;;;;;10.58;53.82;101519.19;5018237;28;20057;-75
2021/05/08 08:40:29;;;;;;;17.77;8.10;;;;;;;10.59;54.00;101510.28;5019980;28;20049;-75
2021/05/08 08:42:56;;;;;;;15.32;8.07;;;;;;;10.67;53.87;101523.44;5019087;28;20062;-72
2021/05/08 08:45:23;;;;;;;14.73;8.35;;;;;;;10.58;54.71;101516.50;5016887;28;20062;-72
2021/05/08 08:47:51;;;;;;;15.40;7.88;;;;;;;10.76;54.05;101525.94;5017104;28;20062;-75
2021/05/08 08:50:20;;;;;;;18.60;8.27;;;;;;;10.77;53.59;101518.78;5015690;28;20062;-73
2021/05/08 08:52:47;;;;;;;12.82;7.15;;;;;;;10.98;54.28;101512.06;5017519;28;20220;-73
2021/05/08 08:55:14;;;;;;;15.35;7.72;;;;;;;11.00;53.56;101520.94;5014878;28;20061;-72
2021/05/08 08:57:44;;;;;;;15.18;7.90;;;;;;;11.01;53.93;101522.69;5019724;28;20338;-72
2021/05/08 09:00:14;;;;;;;17.05;9.00;;;;;;;10.88;54.74;101518.53;5015127;28;20551;-72
2021/05/08 09:02:43;;;;;;;18.50;8.50;;;;;;;10.80;54.91;101518.72;5018779;28;20148;-77
2021/05/08 09:05:12;;;;;;;15.60;8.55;;;;;;;10.74;55.44;101522.38;5030044;28;20072;-77
2021/05/08 09:07:45;;;;;;;16.85;9.05;;;;;;;10.89;55.69;101525.66;5015150;28;20069;-77
2021/05/08 09:10:23;;;;;;;15.13;8.63;;;;;;;10.92;56.52;101520.25;5016282;28;20135;-76
2021/05/08 09:12:52;;;;;;;16.20;8.18;;;;;;;10.73;57.87;101517.97;5026815;28;20089;-75
2021/05/08 09:15:33;;;;;;;13.75;7.72;;;;;;;10.63;56.94;101521.75;5015676;28;20096;-77
2021/05/08 09:18:00;;;;;;;16.25;7.35;;;;;;;10.57;57.41;101512.09;5025816;28;20053;-77
2021/05/08 09:20:41;;;;;;;14.60;7.15;;;;;;;10.45;58.36;101518.56;5019579;28;20085;-71
2021/05/08 09:23:21;;;;;;;12.32;6.80;;;;;;;10.49;58.62;101505.16;5013985;28;20731;-77
2021/05/08 09:25:59;;;;;;;12.75;7.28;;;;;;;10.27;58.90;101503.78;5019147;28;20053;-71
2021/05/08 09:28:27;;;;;;;11.73;6.60;;;;;;;10.30;60.74;101497.53;5014470;28;20068;-71
2021/05/08 09:30:55;;;;;;;13.90;7.00;;;;;;;10.24;60.83;101501.16;5015599;28;20401;-70
2021/05/08 09:33:24;;;;;;;12.75;6.53;;;;;;;10.22;61.50;101497.66;5027709;28;20058;-71
2021/05/08 09:36:04;;;;;;;12.13;6.80;;;;;;;10.22;61.29;101496.78;5018309;28;20083;-70
2021/05/08 09:38:37;;;;;;;11.73;6.80;;;;;;;10.24;63.13;101494.97;5014765;28;20057;-76
2021/05/08 09:41:05;;;;;;;12.98;6.63;;;;;;;10.17;63.12;101488.88;5015382;28;20062;-76
2021/05/08 09:43:34;;;;;;;12.35;6.97;;;;;;;10.09;63.35;101481.00;5015776;28;20057;-78
2021/05/08 09:46:01;;;;;;;14.95;7.00;;;;;;;9.92;64.22;101485.81;5014026;28;20063;-71
2021/05/08 09:48:31;;;;;;;12.80;7.20;;;;;;;9.99;65.74;101482.09;5016876;28;20061;-70
2021/05/08 09:51:17;;;;;;;12.60;6.55;;;;;;;9.88;65.30;101469.00;5017152;28;20396;-71
2021/05/08 09:53:45;;;;;;;12.90;6.55;;;;;;;9.94;66.15;101464.44;5013132;28;21506;-70
2021/05/08 09:56:34;;;;;;;13.57;6.45;;;;;;;9.82;67.34;101477.09;5017141;28;20255;-72
2021/05/08 09:59:20;;;;;;;15.05;6.90;;;;;;;9.74;68.85;101468.38;5017868;28;20057;-71
2021/05/08 10:01:47;;;;;;;12.10;7.00;;;;;;;9.71;68.56;101465.78;5015337;28;20454;-71
2021/05/08 10:04:26;;;;;;;15.45;7.35;;;;;;;9.89;69.58;101445.88;5011825;28;20057;-70
2021/05/08 10:07:05;;;;;;;13.05;6.88;;;;;;;9.84;70.14;101442.41;5008677;28;20092;-71
2021/05/08 10:09:33;;;;;;;10.85;6.18;;;;;;;9.63;71.44;101447.25;5010053;28;20069;-71
2021/05/08 10:12:03;;;;;;;12.90;7.18;;;;;;;9.47;71.08;101437.78;5016405;28;20144;-71
2021/05/08 10:14:31;;;;;;;9.50;5.65;;;;;;;9.56;72.72;101428.75;5013605;28;20144;-71
2021/05/08 10:17:14;;;;;;;13.13;5.80;;;;;;;9.71;72.97;101416.00;5017284;28;20089;-77
2021/05/08 10:19:44;;;;;;;16.52;8.70;;;;;;;9.90;73.35;101405.84;5012731;28;20064;-78
2021/05/08 10:22:12;;;;;;;17.00;7.90;;;;;;;9.68;73.96;101401.88;5016905;28;20087;-78
2021/05/08 10:24:41;;;;;;;13.63;7.57;;;;;;;9.71;73.54;101394.69;5014090;28;20064;-71
2021/05/08 10:27:09;;;;;;;12.57;7.63;;;;;;;9.58;73.74;101400.28;5014136;28;20476;-72
2021/05/08 10:29:38;;;;;;;12.55;6.38;;;;;;;9.65;73.86;101388.59;5010192;28;20087;-71
2021/05/08 10:32:07;;;;;;;13.38;7.50;;;;;;;9.82;74.57;101381.13;5016693;28;20061;-71
2021/05/08 10:34:35;;;;;;;11.68;7.65;;;;;;;9.83;73.60;101380.25;5012333;28;20057;-72
2021/05/08 10:37:07;;;;;;;12.45;7.03;;;;;;;9.69;75.77;101371.66;5017149;28;20053;-70
2021/05/08 10:39:55;;;;;;;10.23;6.47;;;;;;;9.71;75.32;101377.81;5016004;28;20289;-70
2021/05/08 10:42:32;;;;;;;12.38;7.22;;;;;;;9.63;74.80;101363.78;5018115;28;20057;-77
2021/05/08 10:45:00;;;;;;;13.18;5.90;;;;;;;9.59;74.73;101360.28;5016940;28;20208;-77
2021/05/08 10:48:03;;;;;;;12.35;6.57;;;;;;;9.44;74.74;101357.94;5018260;28;20143;-76
2021/05/08 10:50:36;;;;;;;13.13;6.45;;;;;;;9.30;76.14;101355.53;5016916;28;20196;-75
2021/05/08 10:53:06;;;;;;;11.25;6.78;;;;;;;9.28;76.45;101344.00;5019749;28;20470;-76
2021/05/08 10:55:44;;;;;;;12.73;7.22;;;;;;;9.18;76.59;101322.00;5020322;28;20087;-76
2021/05/08 10:58:27;;;;;;;10.73;6.30;;;;;;;9.34;76.47;101320.78;5023003;28;20068;-76
2021/05/08 11:00:59;;;;;;;17.00;7.47;;;;;;;9.19;76.49;101329.06;5017406;28;20168;-76
2021/05/08 11:03:27;;;;;;;13.80;7.53;;;;;;;9.08;76.88;101334.59;5019096;28;20066;-76
2021/05/08 11:05:59;;;;;;;11.25;6.82;;;;;;;9.09;77.62;101325.72;5019182;28;20061;-77
2021/05/08 11:08:49;;;;;;;13.75;7.47;;;;;;;9.11;79.10;101323.03;5019343;28;20070;-75
2021/05/08 11:11:19;;;;;;;14.95;7.68;;;;;;;9.00;79.67;101323.22;5018512;28;20060;-75
2021/05/08 11:13:48;;;;;;;15.93;7.97;;;;;;;8.98;80.04;101333.00;5017744;28;20080;-75
2021/05/08 11:16:17;;;;;;;13.18;6.90;;;;;;;9.08;79.61;101320.44;5019680;28;20286;-73
2021/05/08 11:18:46;;;;;;;13.85;6.93;;;;;;;9.06;79.88;101304.47;5018021;28;20436;-74
2021/05/08 11:21:43;;;;;;;12.05;7.22;;;;;;;9.17;79.81;101285.63;5020444;28;20061;-74
2021/05/08 11:24:11;;;;;;;13.85;7.40;;;;;;;9.29;79.92;101273.88;5018147;28;20061;-73
2021/05/08 11:26:41;;;;;;;16.10;8.68;;;;;;;9.12;80.06;101272.41;5017984;28;20061;-74
2021/05/08 11:29:11;;;;;;;14.75;7.15;;;;;;;9.21;81.12;101254.50;5015747;28;20057;-74